createdAt,value
2022-10-11T00:00:54.699Z,100254.46
2022-10-11T00:03:34.888Z,100254.83
2022-10-11T00:06:17.465Z,100257.60
2022-10-11T00:08:46.349Z,100258.94
2022-10-11T00:11:28.848Z,100261.85
2022-10-11T00:13:57.791Z,100264.08
2022-10-11T00:16:26.840Z,100262.30
2022-10-11T00:18:55.951Z,100264.34
2022-10-11T00:21:25.425Z,100259.80
2022-10-11T00:24:08.022Z,100261.59
2022-10-11T00:26:36.782Z,100268.48
2022-10-11T00:29:06.311Z,100262.70
2022-10-11T00:31:35.934Z,100255.70
2022-10-11T00:34:06.054Z,100264.24
2022-10-11T00:36:35.020Z,100261.79
2022-10-11T00:39:05.283Z,100263.00
2022-10-11T00:41:34.292Z,100263.16
2022-10-11T00:44:25.905Z,100258.52
2022-10-11T00:47:12.941Z,100261.07
2022-10-11T00:50:01.699Z,100259.76
2022-10-11T00:52:35.552Z,100259.60
2022-10-11T00:55:15.293Z,100254.86
2022-10-11T00:57:59.198Z,100254.83
2022-10-11T01:00:41.699Z,100243.41
2022-10-11T01:03:27.494Z,100252.31
2022-10-11T01:05:57.720Z,100247.78
2022-10-11T01:08:40.138Z,100239.76
2022-10-11T01:11:15.173Z,100235.42
2022-10-11T01:14:03.145Z,100235.20
2022-10-11T01:17:03.703Z,100239.13
2022-10-11T01:20:23.961Z,100240.39
2022-10-11T01:23:27.252Z,100241.15
2022-10-11T01:26:27.000Z,100241.64
2022-10-11T01:29:50.145Z,100241.13
2022-10-11T01:32:33.596Z,100241.98
2022-10-11T01:35:40.215Z,100239.31
2022-10-11T01:39:17.143Z,100241.30
2022-10-11T01:41:56.563Z,100238.42
2022-10-11T01:44:41.813Z,100240.59
2022-10-11T01:47:25.561Z,100237.27
2022-10-11T01:50:47.264Z,100239.27
2022-10-11T01:53:39.093Z,100237.04
2022-10-11T01:56:40.451Z,100231.31
2022-10-11T01:59:29.708Z,100234.33
2022-10-11T02:02:23.638Z,100235.13
2022-10-11T02:05:38.349Z,100233.75
2022-10-11T02:08:45.511Z,100233.50
2022-10-11T02:11:34.720Z,100233.15
2022-10-11T02:14:11.917Z,100231.58
2022-10-11T02:16:54.791Z,100229.81
2022-10-11T02:19:48.573Z,100229.41
2022-10-11T02:22:37.426Z,100233.42
2022-10-11T02:25:10.946Z,100239.49
2022-10-11T02:27:43.989Z,100240.09
2022-10-11T02:30:26.607Z,100235.72
2022-10-11T02:32:57.992Z,100237.98
2022-10-11T02:35:30.229Z,100243.04
2022-10-11T02:38:31.635Z,100249.75
2022-10-11T02:41:27.744Z,100253.49
2022-10-11T02:44:16.223Z,100261.85
2022-10-11T02:47:01.109Z,100261.98
2022-10-11T02:49:32.048Z,100264.59
2022-10-11T02:52:00.893Z,100271.32
2022-10-11T02:54:43.308Z,100267.63
2022-10-11T02:57:25.910Z,100274.96
2022-10-11T02:59:54.819Z,100282.23
2022-10-11T03:02:23.791Z,100276.70
2022-10-11T03:04:52.792Z,100279.41
2022-10-11T03:07:35.257Z,100281.77
2022-10-11T03:10:17.831Z,100280.27
2022-10-11T03:12:46.924Z,100281.77
2022-10-11T03:15:15.983Z,100282.04
2022-10-11T03:17:44.999Z,100282.27
2022-10-11T03:20:28.155Z,100281.03
2022-10-11T03:22:57.057Z,100282.58
2022-10-11T03:25:25.962Z,100288.48
2022-10-11T03:27:54.947Z,100291.77
2022-10-11T03:30:24.317Z,100292.09
2022-10-11T03:32:53.374Z,100295.16
2022-10-11T03:35:22.504Z,100300.34
2022-10-11T03:38:05.011Z,100297.62
2022-10-11T03:40:47.785Z,100300.11
2022-10-11T03:43:16.931Z,100293.75
2022-10-11T03:45:45.995Z,100294.66
2022-10-11T03:48:28.542Z,100294.32
2022-10-11T03:50:57.601Z,100297.64
2022-10-11T03:53:26.389Z,100295.81
2022-10-11T03:56:10.051Z,100294.96
2022-10-11T03:58:52.594Z,100305.15
2022-10-11T04:01:21.650Z,100311.67
2022-10-11T04:03:50.565Z,100323.60
2022-10-11T04:06:19.559Z,100324.73
2022-10-11T04:09:02.294Z,100324.95
2022-10-11T04:11:31.225Z,100332.05
2022-10-11T04:14:00.279Z,100336.68
2022-10-11T04:16:43.242Z,100333.46
2022-10-11T04:19:12.518Z,100337.60
2022-10-11T04:21:41.365Z,100342.91
2022-10-11T04:24:12.193Z,100349.80
2022-10-11T04:26:54.869Z,100355.41
2022-10-11T04:29:27.717Z,100359.81
2022-10-11T04:32:14.072Z,100362.17
2022-10-11T04:34:43.330Z,100364.05
2022-10-11T04:37:12.265Z,100364.95
2022-10-11T04:39:41.394Z,100369.27
2022-10-11T04:42:10.232Z,100373.70
2022-10-11T04:44:52.679Z,100373.98
2022-10-11T04:47:21.603Z,100375.86
2022-10-11T04:49:50.665Z,100380.85
2022-10-11T04:52:32.977Z,100380.45
2022-10-11T04:55:16.032Z,100382.43
2022-10-11T04:57:45.028Z,100383.30
2022-10-11T05:00:15.466Z,100386.48
2022-10-11T05:02:44.348Z,100388.77
2022-10-11T05:05:18.012Z,100391.37
2022-10-11T05:08:01.099Z,100391.17
2022-10-11T05:10:29.735Z,100393.70
2022-10-11T05:12:58.896Z,100403.16
2022-10-11T05:15:41.724Z,100405.83
2022-10-11T05:18:10.424Z,100410.62
2022-10-11T05:20:39.483Z,100412.43
2022-10-11T05:23:08.922Z,100415.95
2022-10-11T05:25:37.928Z,100417.38
2022-10-11T05:28:07.331Z,100418.23
2022-10-11T05:30:50.153Z,100423.23
2022-10-11T05:33:32.812Z,100427.02
2022-10-11T05:36:15.521Z,100431.11
2022-10-11T05:38:45.263Z,100435.44
2022-10-11T05:41:29.448Z,100434.70
2022-10-11T05:43:58.210Z,100439.10
2022-10-11T05:46:40.707Z,100442.14
2022-10-11T05:49:09.658Z,100448.53
2022-10-11T05:51:39.046Z,100454.73
2022-10-11T05:54:08.393Z,100455.45
2022-10-11T05:56:37.164Z,100459.11
2022-10-11T05:59:19.495Z,100464.09
2022-10-11T06:01:49.745Z,100471.45
2022-10-11T06:04:36.433Z,100472.48
2022-10-11T06:07:06.525Z,100479.63
2022-10-11T06:09:36.059Z,100482.27
2022-10-11T06:12:18.757Z,100487.02
2022-10-11T06:14:47.877Z,100493.17
2022-10-11T06:17:30.533Z,100502.61
2022-10-11T06:19:59.509Z,100504.16
2022-10-11T06:22:41.915Z,100509.68
2022-10-11T06:25:24.329Z,100513.06
2022-10-11T06:28:07.199Z,100521.50
2022-10-11T06:30:36.052Z,100522.92
2022-10-11T06:33:19.343Z,100532.55
2022-10-11T06:35:48.558Z,100536.69
2022-10-11T06:38:31.018Z,100537.19
2022-10-11T06:41:18.421Z,100541.57
2022-10-11T06:44:01.270Z,100548.18
2022-10-11T06:46:33.512Z,100549.40
2022-10-11T06:49:02.388Z,100553.92
2022-10-11T06:51:44.771Z,100556.56
2022-10-11T06:54:27.880Z,100562.21
2022-10-11T06:56:57.098Z,100564.20
2022-10-11T06:59:39.573Z,100570.58
2022-10-11T07:02:10.798Z,100570.95
2022-10-11T07:04:53.270Z,100574.19
2022-10-11T07:07:35.571Z,100577.83
2022-10-11T07:10:18.245Z,100582.18
2022-10-11T07:13:00.783Z,100590.53
2022-10-11T07:15:43.579Z,100592.13
2022-10-11T07:18:12.521Z,100593.09
2022-10-11T07:20:55.424Z,100596.16
2022-10-11T07:23:38.490Z,100606.55
2022-10-11T07:26:09.573Z,100608.40
2022-10-11T07:28:52.622Z,100616.57
2022-10-11T07:31:24.510Z,100616.83
2022-10-11T07:33:54.769Z,100622.05
2022-10-11T07:36:24.545Z,100624.06
2022-10-11T07:38:53.543Z,100628.77
2022-10-11T07:41:22.620Z,100630.08
2022-10-11T07:44:05.331Z,100637.70
2022-10-11T07:46:47.769Z,100642.20
2022-10-11T07:49:17.395Z,100645.92
2022-10-11T07:51:46.234Z,100647.42
2022-10-11T07:54:28.550Z,100655.50
2022-10-11T07:56:57.584Z,100663.01
2022-10-11T07:59:26.535Z,100661.20
2022-10-11T08:01:55.743Z,100666.43
2022-10-11T08:04:24.398Z,100673.07
2022-10-11T08:06:53.619Z,100674.59
2022-10-11T08:09:36.215Z,100675.50
2022-10-11T08:12:18.668Z,100672.09
2022-10-11T08:14:47.650Z,100676.77
2022-10-11T08:17:16.565Z,100681.57
2022-10-11T08:19:45.483Z,100675.98
2022-10-11T08:22:14.248Z,100679.08
2022-10-11T08:24:43.544Z,100681.15
2022-10-11T08:27:26.636Z,100683.33
2022-10-11T08:30:10.126Z,100689.30
2022-10-11T08:32:39.327Z,100690.46
2022-10-11T08:35:22.066Z,100695.23
2022-10-11T08:37:51.480Z,100691.76
2022-10-11T08:40:35.379Z,100692.96
2022-10-11T08:43:08.532Z,100693.81
2022-10-11T08:45:54.864Z,100700.99
2022-10-11T08:48:41.844Z,100705.18
2022-10-11T08:51:30.841Z,100713.02
2022-10-11T08:54:32.834Z,100711.91
2022-10-11T08:57:06.075Z,100711.65
2022-10-11T09:00:14.902Z,100716.61
2022-10-11T09:03:13.175Z,100718.41
2022-10-11T09:06:04.748Z,100722.79
2022-10-11T09:09:07.961Z,100723.15
2022-10-11T09:12:03.496Z,100728.77
2022-10-11T09:14:54.351Z,100727.36
2022-10-11T09:17:58.818Z,100732.71
2022-10-11T09:20:53.333Z,100732.67
2022-10-11T09:23:47.622Z,100731.98
2022-10-11T09:26:25.680Z,100741.73
2022-10-11T09:29:07.196Z,100746.98
2022-10-11T09:31:36.392Z,100748.77
2022-10-11T09:34:20.419Z,100748.35
2022-10-11T09:37:15.028Z,100747.21
2022-10-11T09:39:55.714Z,100758.38
2022-10-11T09:42:24.863Z,100747.91
2022-10-11T09:44:55.293Z,100749.95
2022-10-11T09:47:27.552Z,100754.73
2022-10-11T09:50:30.967Z,100760.63
2022-10-11T09:53:08.046Z,100762.48
2022-10-11T09:55:39.601Z,100768.67
2022-10-11T09:58:32.425Z,100765.67
2022-10-11T10:01:25.766Z,100773.17
2022-10-11T10:04:17.149Z,100769.00
2022-10-11T10:06:46.705Z,100775.36
2022-10-11T10:09:31.103Z,100781.46
2022-10-11T10:12:22.870Z,100778.03
2022-10-11T10:15:02.529Z,100784.64
2022-10-11T10:17:53.438Z,100789.45
2022-10-11T10:20:36.955Z,100791.05
2022-10-11T10:23:28.143Z,100783.86
2022-10-11T10:26:20.928Z,100788.02
2022-10-11T10:29:16.910Z,100787.77
2022-10-11T10:32:14.181Z,100792.23
2022-10-11T10:35:16.991Z,100793.86
2022-10-11T10:37:59.685Z,100794.14
2022-10-11T10:40:51.343Z,100795.35
2022-10-11T10:43:24.320Z,100794.34
2022-10-11T10:46:12.109Z,100807.14
2022-10-11T10:49:18.714Z,100811.27
2022-10-11T10:51:53.187Z,100812.55
2022-10-11T10:54:39.110Z,100812.65
2022-10-11T10:57:47.050Z,100804.73
2022-10-11T11:00:15.804Z,100810.20
2022-10-11T11:02:51.578Z,100811.25
2022-10-11T11:05:40.216Z,100813.67
2022-10-11T11:08:38.052Z,100813.39
2022-10-11T11:11:58.068Z,100811.84
2022-10-11T11:14:46.394Z,100817.46
2022-10-11T11:17:40.803Z,100815.55
2022-10-11T11:20:42.445Z,100818.02
2022-10-11T11:23:33.237Z,100817.11
2022-10-11T11:26:10.019Z,100825.10
2022-10-11T11:29:04.306Z,100824.55
2022-10-11T11:31:59.463Z,100823.34
2022-10-11T11:34:47.076Z,100820.27
2022-10-11T11:37:34.761Z,100820.70
2022-10-11T11:40:23.098Z,100822.67
2022-10-11T11:43:36.240Z,100825.20
2022-10-11T11:46:29.150Z,100819.31
2022-10-11T11:49:03.692Z,100817.79
2022-10-11T11:51:47.703Z,100820.96
2022-10-11T11:54:45.432Z,100820.49
2022-10-11T11:57:26.626Z,100824.12
2022-10-11T12:00:06.073Z,100821.95
2022-10-11T12:02:40.396Z,100824.05
2022-10-11T12:05:30.775Z,100825.31
2022-10-11T12:08:18.984Z,100826.45
2022-10-11T12:10:51.154Z,100823.27
2022-10-11T12:13:39.977Z,100827.70
2022-10-11T12:16:23.085Z,100826.67
2022-10-11T12:19:06.112Z,100827.29
2022-10-11T12:22:40.467Z,100826.88
2022-10-11T12:25:09.579Z,100828.14
2022-10-11T12:27:44.645Z,100831.77
2022-10-11T12:30:51.006Z,100828.06
2022-10-11T12:33:33.487Z,100833.94
2022-10-11T12:36:22.177Z,100837.96
2022-10-11T12:39:23.400Z,100840.92
2022-10-11T12:42:06.032Z,100841.27
2022-10-11T12:44:35.029Z,100840.86
2022-10-11T12:47:48.367Z,100835.51
2022-10-11T12:50:28.671Z,100839.59
2022-10-11T12:53:36.898Z,100836.99
2022-10-11T12:56:27.369Z,100838.41
2022-10-11T12:59:06.554Z,100837.80
2022-10-11T13:01:48.700Z,100838.73
2022-10-11T13:04:21.894Z,100837.00
2022-10-11T13:06:54.985Z,100838.83
2022-10-11T13:09:32.648Z,100835.98
2022-10-11T13:12:13.879Z,100835.95
2022-10-11T13:15:07.167Z,100837.75
2022-10-11T13:17:41.244Z,100839.60
2022-10-11T13:20:31.746Z,100842.83
2022-10-11T13:23:01.429Z,100840.80
2022-10-11T13:25:38.228Z,100846.19
2022-10-11T13:28:22.294Z,100845.02
2022-10-11T13:30:56.827Z,100846.95
2022-10-11T13:33:43.032Z,100844.30
2022-10-11T13:36:20.829Z,100838.27
2022-10-11T13:39:01.351Z,100836.73
2022-10-11T13:41:43.853Z,100846.83
2022-10-11T13:44:12.837Z,100851.55
2022-10-11T13:46:42.592Z,100849.02
2022-10-11T13:49:27.130Z,100845.95
2022-10-11T13:52:02.573Z,100846.84
2022-10-11T13:55:10.078Z,100846.63
2022-10-11T13:57:46.789Z,100850.27
2022-10-11T14:00:15.497Z,100856.04
2022-10-11T14:02:51.347Z,100860.10
2022-10-11T14:05:34.897Z,100866.50
2022-10-11T14:08:20.927Z,100870.95
2022-10-11T14:11:06.623Z,100870.34
2022-10-11T14:13:39.465Z,100869.11
2022-10-11T14:16:21.796Z,100866.67
2022-10-11T14:19:10.749Z,100869.64
2022-10-11T14:21:54.426Z,100869.80
2022-10-11T14:24:23.628Z,100867.77
2022-10-11T14:26:54.950Z,100869.36
2022-10-11T14:29:26.867Z,100864.15
2022-10-11T14:32:03.374Z,100868.11
2022-10-11T14:34:48.136Z,100866.05
2022-10-11T14:37:18.510Z,100865.94
2022-10-11T14:39:48.248Z,100870.58
2022-10-11T14:42:18.067Z,100868.50
2022-10-11T14:45:01.128Z,100864.21
2022-10-11T14:47:29.990Z,100867.48
2022-10-11T14:49:59.031Z,100872.07
2022-10-11T14:52:28.323Z,100877.43
2022-10-11T14:54:57.149Z,100881.69
2022-10-11T14:57:39.434Z,100888.98
2022-10-11T15:00:19.072Z,100889.89
2022-10-11T15:02:47.622Z,100890.50
2022-10-11T15:05:16.656Z,100894.95
2022-10-11T15:07:45.560Z,100895.89
2022-10-11T15:10:22.419Z,100895.88
2022-10-11T15:12:52.953Z,100898.05
2022-10-11T15:15:37.853Z,100898.05
2022-10-11T15:18:08.425Z,100897.33
2022-10-11T15:20:52.260Z,100898.82
2022-10-11T15:23:20.995Z,100898.17
2022-10-11T15:26:03.674Z,100902.60
2022-10-11T15:28:48.052Z,100906.14
2022-10-11T15:31:17.868Z,100907.29
2022-10-11T15:33:46.701Z,100906.89
2022-10-11T15:36:19.802Z,100912.77
2022-10-11T15:39:02.155Z,100914.63
2022-10-11T15:41:44.866Z,100915.55
2022-10-11T15:44:13.658Z,100919.17
2022-10-11T15:46:56.305Z,100921.63
2022-10-11T15:49:25.073Z,100925.19
2022-10-11T15:51:54.406Z,100927.21
2022-10-11T15:54:36.708Z,100929.45
2022-10-11T15:57:19.521Z,100933.36
2022-10-11T16:00:02.386Z,100932.79
2022-10-11T16:02:41.151Z,100940.49
2022-10-11T16:05:25.915Z,100943.64
2022-10-11T16:07:55.118Z,100944.98
2022-10-11T16:10:24.310Z,100949.66
2022-10-11T16:12:53.142Z,100952.86
2022-10-11T16:15:38.939Z,100953.02
2022-10-11T16:18:22.593Z,100955.06
2022-10-11T16:20:52.654Z,100952.05
2022-10-11T16:23:22.679Z,100956.89
2022-10-11T16:25:59.348Z,100962.91
2022-10-11T16:28:42.288Z,100961.13
2022-10-11T16:31:14.945Z,100964.40
2022-10-11T16:33:47.905Z,100963.17
2022-10-11T16:36:41.023Z,100968.26
2022-10-11T16:39:17.267Z,100970.25
2022-10-11T16:41:47.504Z,100974.48
2022-10-11T16:44:19.458Z,100976.13
2022-10-11T16:46:49.291Z,100978.09
2022-10-11T16:49:26.099Z,100979.71
2022-10-11T16:51:59.447Z,100980.27
2022-10-11T16:54:30.450Z,100981.83
2022-10-11T16:57:00.030Z,100980.73
2022-10-11T16:59:28.980Z,100980.60
2022-10-11T17:01:58.322Z,100983.42
2022-10-11T17:04:27.143Z,100988.39
2022-10-11T17:06:56.705Z,100987.73
2022-10-11T17:09:48.952Z,100991.61
2022-10-11T17:12:32.261Z,100995.83
2022-10-11T17:15:01.339Z,100993.83
2022-10-11T17:17:43.667Z,100990.88
2022-10-11T17:20:12.142Z,100991.33
2022-10-11T17:22:41.092Z,100994.24
2022-10-11T17:25:10.002Z,100991.77
2022-10-11T17:27:38.954Z,100992.63
2022-10-11T17:30:08.676Z,100991.41
2022-10-11T17:32:53.059Z,100993.67
2022-10-11T17:35:35.434Z,100993.91
2022-10-11T17:38:20.198Z,100995.52
2022-10-11T17:41:00.357Z,100992.21
2022-10-11T17:43:43.005Z,100995.05
2022-10-11T17:46:15.072Z,100997.20
2022-10-11T17:48:46.111Z,101001.45
2022-10-11T17:51:28.626Z,101001.76
2022-10-11T17:53:57.837Z,101003.73
2022-10-11T17:56:41.651Z,101005.98
2022-10-11T17:59:27.695Z,101004.73
2022-10-11T18:01:56.791Z,101008.34
2022-10-11T18:04:29.566Z,101001.99
2022-10-11T18:06:58.464Z,101008.23
2022-10-11T18:09:27.558Z,101006.77
2022-10-11T18:11:56.052Z,101006.19
2022-10-11T18:14:24.949Z,101008.27
2022-10-11T18:17:07.195Z,101009.11
2022-10-11T18:19:49.690Z,101008.20
2022-10-11T18:22:18.678Z,101007.72
2022-10-11T18:24:48.410Z,101005.39
2022-10-11T18:27:17.226Z,101005.13
2022-10-11T18:29:45.883Z,101008.57
2022-10-11T18:32:17.434Z,101007.09
2022-10-11T18:34:46.617Z,101010.86
2022-10-11T18:37:30.094Z,101011.40
2022-10-11T18:39:58.922Z,101012.83
2022-10-11T18:42:27.735Z,101014.19
2022-10-11T18:44:57.266Z,101015.52
2022-10-11T18:47:26.175Z,101016.42
2022-10-11T18:49:55.238Z,101015.79
2022-10-11T18:52:23.662Z,101019.98
2022-10-11T18:54:52.351Z,101017.54
2022-10-11T18:57:21.355Z,101016.96
2022-10-11T18:59:50.849Z,101020.52
2022-10-11T19:02:19.687Z,101018.71
2022-10-11T19:04:52.934Z,101025.29
2022-10-11T19:07:35.865Z,101032.54
2022-10-11T19:10:05.054Z,101033.77
2022-10-11T19:12:34.044Z,101028.16
2022-10-11T19:15:02.726Z,101031.59
2022-10-11T19:17:36.425Z,101028.31
2022-10-11T19:20:09.230Z,101034.98
2022-10-11T19:22:38.330Z,101034.10
2022-10-11T19:25:07.859Z,101038.89
2022-10-11T19:27:36.854Z,101037.89
2022-10-11T19:30:06.350Z,101042.10
2022-10-11T19:32:35.432Z,101044.88
2022-10-11T19:35:04.531Z,101042.60
2022-10-11T19:37:47.034Z,101050.05
2022-10-11T19:40:16.157Z,101048.81
2022-10-11T19:42:45.772Z,101052.11
2022-10-11T19:45:14.460Z,101055.20
2022-10-11T19:47:56.684Z,101055.21
2022-10-11T19:50:25.279Z,101052.67
2022-10-11T19:52:54.077Z,101055.59
2022-10-11T19:55:23.018Z,101056.73
2022-10-11T19:57:52.055Z,101060.16
2022-10-11T20:00:21.149Z,101062.45
2022-10-11T20:02:49.694Z,101065.05
2022-10-11T20:05:18.253Z,101060.59
2022-10-11T20:07:47.002Z,101064.30
2022-10-11T20:10:15.558Z,101070.48
2022-10-11T20:12:57.935Z,101067.65
2022-10-11T20:15:26.701Z,101069.84
2022-10-11T20:17:55.212Z,101067.71
2022-10-11T20:20:24.095Z,101071.65
2022-10-11T20:22:53.855Z,101071.61
2022-10-11T20:25:22.578Z,101072.04
2022-10-11T20:27:51.095Z,101068.12
2022-10-11T20:30:20.065Z,101070.98
2022-10-11T20:32:48.700Z,101070.86
2022-10-11T20:35:31.523Z,101069.02
2022-10-11T20:38:00.124Z,101070.18
2022-10-11T20:40:28.899Z,101071.15
2022-10-11T20:42:57.606Z,101071.60
2022-10-11T20:45:26.457Z,101070.10
2022-10-11T20:47:54.930Z,101068.42
2022-10-11T20:50:23.662Z,101070.91
2022-10-11T20:53:06.034Z,101068.89
2022-10-11T20:55:34.677Z,101072.86
2022-10-11T20:58:03.276Z,101070.08
2022-10-11T21:00:31.901Z,101073.52
2022-10-11T21:03:00.467Z,101076.39
2022-10-11T21:05:29.589Z,101072.80
2022-10-11T21:07:58.385Z,101074.80
2022-10-11T21:10:28.180Z,101080.45
2022-10-11T21:12:57.082Z,101077.55
2022-10-11T21:15:26.343Z,101082.20
2022-10-11T21:18:08.625Z,101080.63
2022-10-11T21:20:51.423Z,101075.41
2022-10-11T21:23:20.409Z,101074.02
2022-10-11T21:26:04.521Z,101074.45
2022-10-11T21:28:49.187Z,101074.54
2022-10-11T21:31:20.371Z,101076.14
2022-10-11T21:34:05.443Z,101075.29
2022-10-11T21:36:33.980Z,101078.96
2022-10-11T21:39:03.173Z,101077.98
2022-10-11T21:41:32.418Z,101077.83
2022-10-11T21:44:01.625Z,101077.18
2022-10-11T21:49:32.805Z,101081.59
2022-10-11T21:52:15.128Z,101082.65
2022-10-11T21:54:57.765Z,101082.14
2022-10-11T21:57:43.116Z,101086.86
2022-10-11T22:00:13.395Z,101086.39
2022-10-11T22:02:42.051Z,101085.21
2022-10-11T22:05:10.981Z,101085.77
2022-10-11T22:07:54.192Z,101087.05
2022-10-11T22:10:22.906Z,101085.94
2022-10-11T22:12:51.692Z,101085.58
2022-10-11T22:15:35.240Z,101088.66
2022-10-11T22:18:04.531Z,101085.98
2022-10-11T22:20:33.660Z,101093.30
2022-10-11T22:23:02.615Z,101091.62
2022-10-11T22:25:34.465Z,101089.71
2022-10-11T22:28:16.948Z,101084.53
2022-10-11T22:30:59.380Z,101084.92
2022-10-11T22:33:29.304Z,101084.45
2022-10-11T22:36:00.454Z,101085.34
2022-10-11T22:38:30.071Z,101086.22
2022-10-11T22:41:13.031Z,101087.15
2022-10-11T22:43:55.360Z,101090.88
2022-10-11T22:46:24.153Z,101092.48
2022-10-11T22:49:06.578Z,101090.05
2022-10-11T22:51:35.298Z,101091.81
2022-10-11T22:54:04.966Z,101092.88
2022-10-11T22:56:47.387Z,101093.26
2022-10-11T22:59:16.343Z,101091.37
2022-10-11T23:01:45.229Z,101091.35
2022-10-11T23:04:27.595Z,101089.83
2022-10-11T23:06:57.781Z,101090.05
2022-10-11T23:09:41.634Z,101093.86
2022-10-11T23:12:10.760Z,101091.47
2022-10-11T23:14:53.233Z,101093.00
2022-10-11T23:17:35.863Z,101089.54
2022-10-11T23:20:07.150Z,101087.61
2022-10-11T23:22:49.505Z,101084.31
2022-10-11T23:25:31.973Z,101086.92
2022-10-11T23:28:02.426Z,101092.48
2022-10-11T23:30:31.431Z,101091.95
2022-10-11T23:33:00.386Z,101090.94
2022-10-11T23:35:29.201Z,101091.83
2022-10-11T23:38:11.540Z,101092.52
2022-10-11T23:40:53.911Z,101094.09
2022-10-11T23:43:36.339Z,101094.27
2022-10-11T23:46:18.748Z,101098.75
2022-10-11T23:48:47.964Z,101101.70
2022-10-11T23:51:30.707Z,101098.73
2022-10-11T23:54:13.160Z,101103.30
2022-10-11T23:56:41.893Z,101099.02
2022-10-11T23:59:24.247Z,101101.64
